Time;durP1;ratioP1;P1;durP2;ratioP2;P2;SDS_P1;SDS_P2;PMS_P1;PMS_P2;Temp;Humidity;BMP_temperature;BMP_pressure;BME280_temperature;BME280_humidity;BME280_pressure;Samples;Min_cycle;Max_cycle;Signal;HPM_P1;HPM_P2
2021/05/15 00:01:04;;;;;;;2.65;2.20;;;16.80;71.60;;;;;;5032221;28;20510;-46
2021/05/15 00:03:29;;;;;;;2.88;2.20;;;16.80;71.60;;;;;;5032786;28;20153;-40
2021/05/15 00:05:55;;;;;;;3.17;2.50;;;16.80;71.60;;;;;;5032113;28;20042;-42
2021/05/15 00:08:21;;;;;;;2.38;2.17;;;16.80;71.60;;;;;;5033211;28;20565;-46
2021/05/15 00:10:48;;;;;;;2.60;2.40;;;16.80;71.60;;;;;;5051944;28;20132;-43
2021/05/15 00:13:15;;;;;;;2.35;2.17;;;16.80;71.60;;;;;;5038119;28;20048;-47
2021/05/15 00:15:41;;;;;;;2.95;2.08;;;16.90;71.70;;;;;;5037703;28;20045;-46
2021/05/15 00:18:07;;;;;;;3.45;2.42;;;16.80;71.60;;;;;;5051339;28;20045;-41
2021/05/15 00:20:33;;;;;;;2.22;2.03;;;16.80;71.60;;;;;;5050090;28;20037;-45
2021/05/15 00:22:58;;;;;;;2.65;2.42;;;16.80;71.70;;;;;;5038564;28;20406;-42
2021/05/15 00:25:24;;;;;;;2.30;2.10;;;16.80;71.70;;;;;;5014225;28;20057;-43
2021/05/15 00:27:50;;;;;;;3.45;2.50;;;16.80;71.70;;;;;;5048172;28;20163;-43
2021/05/15 00:30:17;;;;;;;2.50;2.20;;;16.80;71.70;;;;;;5051944;28;20069;-44
2021/05/15 00:32:43;;;;;;;2.63;2.13;;;16.80;71.60;;;;;;5049897;28;20069;-43
2021/05/15 00:35:10;;;;;;;2.55;2.35;;;16.80;71.60;;;;;;5051383;28;20489;-43
2021/05/15 00:37:37;;;;;;;2.72;2.45;;;16.80;71.60;;;;;;5049256;28;20041;-45
2021/05/15 00:40:08;;;;;;;2.20;2.00;;;16.70;71.60;;;;;;5050839;28;20385;-42
2021/05/15 00:42:37;;;;;;;2.40;2.20;;;16.80;71.60;;;;;;5052897;28;20060;-43
2021/05/15 00:45:06;;;;;;;2.58;2.38;;;16.80;71.60;;;;;;5054967;28;20079;-45
2021/05/15 00:47:32;;;;;;;2.45;2.25;;;16.70;71.60;;;;;;5055980;28;20421;-44
2021/05/15 00:49:58;;;;;;;2.85;2.50;;;16.70;71.60;;;;;;5038933;28;20048;-42
2021/05/15 00:52:27;;;;;;;2.38;2.17;;;16.80;71.70;;;;;;5038278;28;20128;-42
2021/05/15 00:54:54;;;;;;;2.50;2.30;;;16.80;71.70;;;;;;5044194;28;20045;-43
2021/05/15 00:57:20;;;;;;;2.38;2.17;;;16.80;71.70;;;;;;5035557;28;20057;-41
2021/05/15 00:59:46;;;;;;;3.60;2.28;;;16.70;71.60;;;;;;5053419;28;20505;-42
2021/05/15 01:02:13;;;;;;;2.08;1.88;;;16.80;71.60;;;;;;5054883;28;20052;-42
2021/05/15 01:04:39;;;;;;;2.40;2.10;;;16.70;71.60;;;;;;5052630;28;20056;-42
2021/05/15 01:07:10;;;;;;;2.50;2.30;;;16.80;71.70;;;;;;5036337;28;20069;-44
2021/05/15 01:09:36;;;;;;;2.50;2.30;;;16.80;71.70;;;;;;5035148;28;20041;-41
2021/05/15 01:12:06;;;;;;;2.58;2.38;;;16.70;71.60;;;;;;5035336;28;20053;-44
2021/05/15 01:14:34;;;;;;;2.50;2.15;;;16.70;71.60;;;;;;5039695;28;20041;-39
2021/05/15 01:17:00;;;;;;;2.75;2.40;;;16.70;71.60;;;;;;5036084;28;20049;-43
2021/05/15 01:19:26;;;;;;;3.00;2.67;;;16.70;71.60;;;;;;5037399;28;20056;-41
2021/05/15 01:21:52;;;;;;;2.42;2.22;;;16.70;71.60;;;;;;5043058;28;20511;-42
2021/05/15 01:24:18;;;;;;;2.65;2.38;;;16.70;71.60;;;;;;5053273;28;20147;-43
2021/05/15 01:26:43;;;;;;;3.00;2.70;;;16.70;71.60;;;;;;5046630;28;20124;-42
2021/05/15 01:29:09;;;;;;;2.20;2.00;;;16.70;71.60;;;;;;5035983;28;20101;-42
2021/05/15 01:31:38;;;;;;;2.50;2.17;;;16.70;71.70;;;;;;5034793;28;20140;-41
2021/05/15 01:34:04;;;;;;;3.25;2.10;;;16.80;71.70;;;;;;5045471;28;20053;-43
2021/05/15 01:36:34;;;;;;;2.47;2.28;;;16.70;71.60;;;;;;5053641;28;20102;-45
2021/05/15 01:38:59;;;;;;;2.67;2.42;;;16.70;71.70;;;;;;5054344;28;20061;-43
2021/05/15 01:41:25;;;;;;;2.67;2.30;;;16.70;71.60;;;;;;5035569;28;20148;-44
2021/05/15 01:43:56;;;;;;;2.65;2.35;;;16.70;71.60;;;;;;5036838;28;20072;-39
2021/05/15 01:46:22;;;;;;;2.33;2.13;;;16.70;71.60;;;;;;5054128;28;20099;-43
2021/05/15 01:48:48;;;;;;;2.88;2.67;;;16.70;71.60;;;;;;5051896;28;20044;-47
2021/05/15 01:51:14;;;;;;;2.97;2.45;;;16.70;71.60;;;;;;5034846;28;20045;-45
2021/05/15 01:53:48;;;;;;;2.80;2.60;;;16.80;71.70;;;;;;5033127;28;20053;-44
2021/05/15 01:56:16;;;;;;;2.40;2.20;;;16.70;71.70;;;;;;5043489;28;20076;-46
2021/05/15 01:58:43;;;;;;;2.97;2.67;;;16.70;71.70;;;;;;5054302;28;20379;-39
2021/05/15 02:01:09;;;;;;;2.40;2.20;;;16.70;71.70;;;;;;5052065;28;20112;-43
2021/05/15 02:03:36;;;;;;;2.50;2.30;;;16.70;71.70;;;;;;5054197;28;20048;-47
2021/05/15 02:06:02;;;;;;;3.08;2.50;;;16.70;71.70;;;;;;5041128;28;20049;-43
2021/05/15 02:08:28;;;;;;;2.55;2.20;;;16.70;71.70;;;;;;5034508;28;20045;-45
2021/05/15 02:10:56;;;;;;;2.60;2.30;;;16.70;71.70;;;;;;5035505;28;20068;-42
2021/05/15 02:13:25;;;;;;;2.50;2.30;;;16.70;71.70;;;;;;5034026;28;20500;-43
2021/05/15 02:15:51;;;;;;;2.50;2.30;;;16.70;71.70;;;;;;5035695;28;20130;-43
2021/05/15 02:18:16;;;;;;;2.42;2.20;;;16.70;71.70;;;;;;5053875;28;20131;-41
2021/05/15 02:20:43;;;;;;;2.38;2.17;;;16.70;71.70;;;;;;5053260;28;20049;-44
2021/05/15 02:23:10;;;;;;;2.47;2.28;;;16.70;71.70;;;;;;5051684;28;20532;-43
2021/05/15 02:25:37;;;;;;;2.65;2.45;;;16.70;71.70;;;;;;5053770;28;20151;-43
2021/05/15 02:28:03;;;;;;;3.15;2.50;;;16.70;71.70;;;;;;5039158;28;20049;-42
2021/05/15 02:30:31;;;;;;;2.40;2.20;;;16.70;71.70;;;;;;5051808;28;20131;-40
2021/05/15 02:32:57;;;;;;;2.80;2.33;;;16.60;71.70;;;;;;5034792;28;20061;-43
2021/05/15 02:35:23;;;;;;;2.55;2.33;;;16.60;71.70;;;;;;5053221;28;20037;-42
2021/05/15 02:37:49;;;;;;;2.72;2.28;;;16.70;71.80;;;;;;5052729;28;20049;-42
2021/05/15 02:40:16;;;;;;;2.72;2.42;;;16.60;71.70;;;;;;5041338;28;20045;-44
2021/05/15 02:42:50;;;;;;;3.22;2.40;;;16.70;71.80;;;;;;5034612;28;20073;-41
2021/05/15 02:45:21;;;;;;;2.50;2.25;;;16.60;71.70;;;;;;5033758;28;20115;-43
2021/05/15 02:47:47;;;;;;;2.45;2.10;;;16.70;71.80;;;;;;5053522;28;20087;-45
2021/05/15 02:50:15;;;;;;;2.60;2.40;;;16.60;71.70;;;;;;5053309;28;20045;-41
2021/05/15 02:52:42;;;;;;;2.38;1.98;;;16.60;71.70;;;;;;5033517;28;20041;-44
2021/05/15 02:55:10;;;;;;;2.70;2.33;;;16.60;71.70;;;;;;5049308;28;20051;-42
2021/05/15 02:57:37;;;;;;;2.38;2.10;;;16.60;71.80;;;;;;5032864;28;20104;-44
2021/05/15 03:00:06;;;;;;;2.55;2.35;;;16.60;71.60;;;;;;5053186;28;20144;-43
2021/05/15 03:02:31;;;;;;;2.75;2.45;;;16.60;71.70;;;;;;5052786;28;20120;-42
2021/05/15 03:04:57;;;;;;;2.58;2.38;;;16.60;71.70;;;;;;5051038;28;20553;-43
2021/05/15 03:07:23;;;;;;;2.38;2.17;;;16.70;71.80;;;;;;5038904;28;20049;-43
2021/05/15 03:09:49;;;;;;;2.65;2.40;;;16.60;71.80;;;;;;5033081;28;20136;-45
2021/05/15 03:12:15;;;;;;;2.88;2.45;;;16.60;71.70;;;;;;5032994;28;20049;-42
2021/05/15 03:14:42;;;;;;;2.40;2.20;;;16.60;71.70;;;;;;5033912;28;20106;-43
2021/05/15 03:17:09;;;;;;;2.60;2.40;;;16.60;71.70;;;;;;5036228;28;20051;-40
2021/05/15 03:19:35;;;;;;;2.50;2.30;;;16.60;71.80;;;;;;5033763;28;20049;-47
2021/05/15 03:22:00;;;;;;;2.45;2.25;;;16.60;71.80;;;;;;5032853;28;20047;-45
2021/05/15 03:24:26;;;;;;;3.58;2.47;;;16.60;71.80;;;;;;5032384;28;20526;-48
2021/05/15 03:26:52;;;;;;;2.47;2.28;;;16.60;71.80;;;;;;5033467;28;20079;-44
2021/05/15 03:29:18;;;;;;;2.90;2.45;;;16.60;71.80;;;;;;5032236;28;20089;-46
2021/05/15 03:31:44;;;;;;;3.22;2.55;;;16.60;71.80;;;;;;5031561;28;20049;-47
2021/05/15 03:34:10;;;;;;;2.88;2.42;;;16.60;71.80;;;;;;5031591;28;20100;-42
2021/05/15 03:36:36;;;;;;;2.70;2.30;;;16.60;71.80;;;;;;5040942;28;20049;-44
2021/05/15 03:39:03;;;;;;;2.22;1.80;;;16.60;71.80;;;;;;5051576;28;20512;-46
2021/05/15 03:41:28;;;;;;;2.60;2.15;;;16.60;71.80;;;;;;5050573;28;20076;-42
2021/05/15 03:43:54;;;;;;;3.28;2.20;;;16.60;71.80;;;;;;5048458;28;20045;-46
2021/05/15 03:46:20;;;;;;;3.10;2.60;;;16.60;71.80;;;;;;5035130;28;20056;-38
2021/05/15 03:48:46;;;;;;;2.35;2.15;;;16.60;71.80;;;;;;5037164;28;20524;-42
2021/05/15 03:51:12;;;;;;;2.88;2.45;;;16.70;71.80;;;;;;5033466;28;20045;-42
2021/05/15 03:53:38;;;;;;;2.78;2.10;;;16.60;71.80;;;;;;5032158;28;20053;-44
2021/05/15 03:56:04;;;;;;;2.45;2.25;;;16.50;71.70;;;;;;5033138;28;20072;-41
2021/05/15 03:58:30;;;;;;;2.50;2.28;;;16.60;71.80;;;;;;5048972;28;20131;-43
2021/05/15 04:00:55;;;;;;;3.38;2.50;;;16.60;71.80;;;;;;5036999;28;20124;-46
2021/05/15 04:03:21;;;;;;;3.03;2.40;;;16.60;71.80;;;;;;5052044;28;20527;-42
2021/05/15 04:05:47;;;;;;;2.60;2.33;;;16.60;71.80;;;;;;5050204;28;20041;-43
2021/05/15 04:08:13;;;;;;;2.90;2.38;;;16.50;71.80;;;;;;5050316;28;20041;-45
2021/05/15 04:10:39;;;;;;;2.25;2.05;;;16.60;71.80;;;;;;5051687;28;20051;-46
2021/05/15 04:13:20;;;;;;;2.97;2.22;;;16.60;71.80;;;;;;5032345;28;20041;-46
2021/05/15 04:15:54;;;;;;;3.67;2.45;;;16.50;71.70;;;;;;5032029;28;20095;-45
2021/05/15 04:18:19;;;;;;;2.45;2.25;;;16.60;71.90;;;;;;5037297;28;20059;-43
2021/05/15 04:20:45;;;;;;;2.58;2.38;;;16.60;71.80;;;;;;5044852;28;20418;-41
2021/05/15 04:23:12;;;;;;;2.85;2.63;;;16.50;71.80;;;;;;5056149;28;20044;-44
2021/05/15 04:25:39;;;;;;;2.60;2.28;;;16.50;71.80;;;;;;5055464;28;20041;-43
2021/05/15 04:28:06;;;;;;;3.03;2.53;;;16.60;71.90;;;;;;5036141;28;20053;-42
2021/05/15 04:30:32;;;;;;;2.40;2.20;;;16.50;71.80;;;;;;5052604;28;20083;-44
2021/05/15 04:33:00;;;;;;;2.50;2.30;;;16.60;71.90;;;;;;5055125;28;20056;-43
2021/05/15 04:35:26;;;;;;;2.72;2.40;;;16.50;71.80;;;;;;5055942;28;20060;-43
2021/05/15 04:37:52;;;;;;;2.70;2.50;;;16.50;71.80;;;;;;5037302;28;20042;-45
2021/05/15 04:40:18;;;;;;;2.50;2.20;;;16.50;71.80;;;;;;5036657;28;20422;-43
2021/05/15 04:42:43;;;;;;;3.08;2.35;;;16.50;71.80;;;;;;5035813;28;20045;-40
2021/05/15 04:45:11;;;;;;;2.70;2.45;;;16.50;71.80;;;;;;5055716;28;20466;-44
2021/05/15 04:47:38;;;;;;;2.90;2.40;;;16.50;71.80;;;;;;5055128;28;20049;-43
2021/05/15 04:50:07;;;;;;;2.42;2.22;;;16.50;71.80;;;;;;5054054;28;20072;-43
2021/05/15 04:52:33;;;;;;;3.03;2.63;;;16.50;71.80;;;;;;5048027;28;20417;-42
2021/05/15 04:54:58;;;;;;;2.47;2.15;;;16.50;71.80;;;;;;5036251;28;20054;-43
2021/05/15 04:57:24;;;;;;;2.67;2.30;;;16.40;71.80;;;;;;5036514;28;20156;-41
2021/05/15 04:59:50;;;;;;;2.53;2.33;;;16.50;71.80;;;;;;5035663;28;20090;-44
2021/05/15 05:02:16;;;;;;;2.58;2.15;;;16.50;71.80;;;;;;5036789;28;20056;-44
2021/05/15 05:04:42;;;;;;;2.60;2.40;;;16.50;71.80;;;;;;5035254;28;20048;-43
2021/05/15 05:07:08;;;;;;;2.80;2.60;;;16.60;71.90;;;;;;5047605;28;20048;-45
2021/05/15 05:09:34;;;;;;;3.60;2.60;;;16.50;71.80;;;;;;5039058;28;20041;-41
2021/05/15 05:12:00;;;;;;;2.80;2.40;;;16.40;71.80;;;;;;5036202;28;20057;-43
2021/05/15 05:14:25;;;;;;;3.05;2.75;;;16.50;71.90;;;;;;5035310;28;20091;-45
2021/05/15 05:16:55;;;;;;;3.05;2.70;;;16.50;71.80;;;;;;5035991;28;20046;-42
2021/05/15 05:19:24;;;;;;;2.92;2.60;;;16.50;71.80;;;;;;5035026;28;20354;-38
2021/05/15 05:21:51;;;;;;;3.15;2.85;;;16.50;71.80;;;;;;5036139;28;20413;-39
2021/05/15 05:24:17;;;;;;;3.20;2.78;;;16.50;71.80;;;;;;5036043;28;20042;-41
2021/05/15 05:26:43;;;;;;;2.53;2.33;;;16.40;71.80;;;;;;5034461;28;20449;-41
2021/05/15 05:29:09;;;;;;;2.92;2.38;;;16.50;71.80;;;;;;5038840;28;20087;-44
2021/05/15 05:31:36;;;;;;;2.75;2.55;;;16.50;71.80;;;;;;5054667;28;20124;-39
2021/05/15 05:34:07;;;;;;;2.85;2.60;;;16.50;71.80;;;;;;5050929;28;20048;-43
2021/05/15 05:36:34;;;;;;;2.90;2.60;;;16.50;71.80;;;;;;5042363;28;20110;-48
2021/05/15 05:39:01;;;;;;;2.90;2.50;;;16.50;71.90;;;;;;5054768;28;20045;-41
2021/05/15 05:41:27;;;;;;;2.85;2.55;;;16.60;71.90;;;;;;5039431;28;20128;-44
2021/05/15 05:43:53;;;;;;;3.50;2.90;;;16.50;71.90;;;;;;5043305;28;20069;-40
2021/05/15 05:46:20;;;;;;;3.13;2.83;;;16.60;71.90;;;;;;5051873;28;20053;-42
2021/05/15 05:48:49;;;;;;;2.63;2.42;;;16.50;71.90;;;;;;5054330;28;20076;-42
2021/05/15 05:51:15;;;;;;;2.83;2.53;;;16.50;71.90;;;;;;5043112;28;20045;-42
2021/05/15 05:53:40;;;;;;;3.03;2.28;;;16.50;71.90;;;;;;5034272;28;20393;-42
2021/05/15 05:56:06;;;;;;;3.20;2.63;;;16.50;71.90;;;;;;5040332;28;20045;-45
2021/05/15 05:58:32;;;;;;;2.55;2.33;;;16.50;71.90;;;;;;5034031;28;20136;-40
2021/05/15 06:00:58;;;;;;;3.17;2.60;;;16.50;71.90;;;;;;5051630;28;20063;-41
2021/05/15 06:03:24;;;;;;;2.90;2.60;;;16.50;71.90;;;;;;5054012;28;20158;-41
2021/05/15 06:05:50;;;;;;;3.80;2.85;;;16.50;71.90;;;;;;5052518;28;20540;-42
2021/05/15 06:08:16;;;;;;;2.83;2.15;;;16.50;71.90;;;;;;5050866;28;20402;-41
2021/05/15 06:10:41;;;;;;;2.85;2.38;;;16.50;71.80;;;;;;5042701;28;20474;-47
2021/05/15 06:13:09;;;;;;;3.45;3.15;;;16.50;71.90;;;;;;5053509;28;20175;-43
2021/05/15 06:15:36;;;;;;;2.67;2.35;;;16.50;71.90;;;;;;5039312;28;20112;-41
2021/05/15 06:18:02;;;;;;;2.88;2.50;;;16.50;71.90;;;;;;5034018;28;20125;-43
2021/05/15 06:20:29;;;;;;;2.88;2.67;;;16.50;71.90;;;;;;5033956;28;20537;-41
2021/05/15 06:22:55;;;;;;;3.13;2.78;;;16.50;71.90;;;;;;5033809;28;20099;-43
2021/05/15 06:25:21;;;;;;;3.17;2.40;;;16.50;71.90;;;;;;5033811;28;20045;-39
2021/05/15 06:27:47;;;;;;;3.00;2.42;;;16.50;71.90;;;;;;5047941;28;20048;-41
2021/05/15 06:30:13;;;;;;;2.80;2.50;;;16.50;72.50;;;;;;5053298;28;20044;-45
2021/05/15 06:32:39;;;;;;;2.70;2.50;;;16.50;71.90;;;;;;5053510;28;20041;-38
2021/05/15 06:35:06;;;;;;;4.03;2.88;;;16.50;71.90;;;;;;5053111;28;20068;-45
2021/05/15 06:37:31;;;;;;;4.03;2.90;;;16.50;71.90;;;;;;5052961;28;20123;-47
2021/05/15 06:39:57;;;;;;;3.10;2.80;;;16.50;71.90;;;;;;5034115;28;20087;-44
2021/05/15 06:42:23;;;;;;;2.47;2.28;;;16.50;71.90;;;;;;5033573;28;20076;-44
2021/05/15 06:44:49;;;;;;;2.75;2.33;;;16.50;71.80;;;;;;5033201;28;20107;-39
2021/05/15 06:47:17;;;;;;;2.40;2.20;;;16.50;71.80;;;;;;5033383;28;20116;-41
2021/05/15 06:49:43;;;;;;;2.97;2.35;;;16.50;71.80;;;;;;5037986;28;20062;-45
2021/05/15 06:52:10;;;;;;;2.90;2.40;;;16.50;71.80;;;;;;5049773;28;20125;-46
2021/05/15 06:54:35;;;;;;;2.97;2.67;;;16.50;71.90;;;;;;5033064;28;20128;-46
2021/05/15 06:57:01;;;;;;;3.00;2.65;;;16.50;71.80;;;;;;5033200;28;20240;-43
2021/05/15 06:59:27;;;;;;;3.63;2.90;;;16.50;71.90;;;;;;5032933;28;20704;-40
2021/05/15 07:01:53;;;;;;;3.53;2.90;;;16.50;71.80;;;;;;5015530;28;20481;-42
2021/05/15 07:04:19;;;;;;;3.22;2.45;;;16.50;71.80;;;;;;5034526;28;20048;-44
2021/05/15 07:06:44;;;;;;;3.28;2.38;;;16.50;71.80;;;;;;5033460;28;20053;-43
2021/05/15 07:09:11;;;;;;;2.55;2.35;;;16.50;71.80;;;;;;5033067;28;20052;-42
2021/05/15 07:11:36;;;;;;;3.03;2.58;;;16.50;71.80;;;;;;5033016;28;20075;-42
2021/05/15 07:14:03;;;;;;;2.92;2.63;;;16.50;71.80;;;;;;5034146;28;20054;-46
2021/05/15 07:16:29;;;;;;;2.95;2.50;;;16.50;71.80;;;;;;5032499;28;20107;-42
2021/05/15 07:18:54;;;;;;;2.50;2.20;;;16.50;71.80;;;;;;5032782;28;20569;-43
2021/05/15 07:21:20;;;;;;;2.80;2.60;;;16.50;71.80;;;;;;5032801;28;20067;-46
2021/05/15 07:23:46;;;;;;;2.63;2.42;;;16.50;71.80;;;;;;5033704;28;20430;-42
2021/05/15 07:26:11;;;;;;;3.67;2.72;;;16.50;71.80;;;;;;5032881;28;20049;-44
2021/05/15 07:28:38;;;;;;;3.53;2.55;;;16.50;72.40;;;;;;5037758;28;20045;-40
2021/05/15 07:31:04;;;;;;;3.22;2.67;;;16.50;72.40;;;;;;5052200;28;20151;-40
2021/05/15 07:33:30;;;;;;;3.00;2.70;;;16.50;71.80;;;;;;5052538;28;20551;-47
2021/05/15 07:35:57;;;;;;;3.22;2.28;;;16.50;71.80;;;;;;5052212;28;20065;-46
2021/05/15 07:38:23;;;;;;;2.78;2.17;;;16.50;71.80;;;;;;5052068;28;20087;-38
2021/05/15 07:40:50;;;;;;;3.00;2.70;;;16.50;71.70;;;;;;5051786;28;20040;-43
2021/05/15 07:43:22;;;;;;;3.00;2.70;;;16.50;71.80;;;;;;5052399;28;20082;-45
2021/05/15 07:45:52;;;;;;;3.00;2.50;;;16.50;71.70;;;;;;5033616;28;20053;-43
2021/05/15 07:48:17;;;;;;;4.05;3.15;;;16.50;71.80;;;;;;5052041;28;20068;-47
2021/05/15 07:50:43;;;;;;;2.50;2.30;;;16.50;71.70;;;;;;5049224;28;20068;-47
2021/05/15 07:53:09;;;;;;;3.22;2.63;;;16.50;71.70;;;;;;5051515;28;20044;-45
2021/05/15 07:55:35;;;;;;;3.42;2.70;;;16.50;72.40;;;;;;5052196;28;20056;-48
2021/05/15 07:58:01;;;;;;;2.80;2.55;;;16.50;71.70;;;;;;5052151;28;20056;-45
2021/05/15 08:00:26;;;;;;;3.88;3.30;;;16.40;71.70;;;;;;5050450;28;20110;-43
2021/05/15 08:02:52;;;;;;;2.90;2.60;;;16.50;71.70;;;;;;5051839;28;20056;-44
2021/05/15 08:05:18;;;;;;;3.08;2.72;;;16.50;71.70;;;;;;5051786;28;20502;-43
2021/05/15 08:07:43;;;;;;;3.55;2.88;;;16.50;71.70;;;;;;5052184;28;20098;-42
2021/05/15 08:10:10;;;;;;;3.55;2.85;;;16.50;71.70;;;;;;5052056;28;20485;-47
2021/05/15 08:12:36;;;;;;;3.25;2.50;;;16.50;71.70;;;;;;5050329;28;20064;-44
2021/05/15 08:15:05;;;;;;;3.55;2.90;;;16.50;71.70;;;;;;5051825;28;20500;-42
2021/05/15 08:17:33;;;;;;;3.58;2.72;;;16.50;71.70;;;;;;5051524;28;20496;-45
2021/05/15 08:20:00;;;;;;;2.88;2.58;;;16.50;71.60;;;;;;5051522;28;20045;-39
2021/05/15 08:22:26;;;;;;;3.55;2.63;;;16.40;71.60;;;;;;5050067;28;20072;-40
2021/05/15 08:24:52;;;;;;;4.35;2.92;;;16.50;71.70;;;;;;5041733;28;20139;-43
2021/05/15 08:27:18;;;;;;;3.40;2.70;;;16.50;71.60;;;;;;5050395;28;20504;-44
2021/05/15 08:29:43;;;;;;;3.38;2.90;;;16.50;71.60;;;;;;5046796;28;20175;-42
2021/05/15 08:32:09;;;;;;;4.43;3.10;;;16.50;71.60;;;;;;5031515;28;20053;-43
2021/05/15 08:34:35;;;;;;;3.70;2.88;;;16.50;71.60;;;;;;5031550;28;20041;-40
2021/05/15 08:37:01;;;;;;;3.53;2.75;;;16.60;71.70;;;;;;5032047;28;20049;-41
2021/05/15 08:39:27;;;;;;;3.08;2.72;;;16.50;71.60;;;;;;5031877;28;20060;-39
2021/05/15 08:41:52;;;;;;;3.75;2.75;;;16.50;71.60;;;;;;5036670;28;20037;-40
2021/05/15 08:44:23;;;;;;;2.80;2.47;;;16.50;71.60;;;;;;5051751;28;20041;-41
2021/05/15 08:46:52;;;;;;;4.07;2.88;;;16.50;71.60;;;;;;5051548;28;20053;-41
2021/05/15 08:49:21;;;;;;;3.75;3.05;;;16.50;71.60;;;;;;5051256;28;20064;-38
2021/05/15 08:51:54;;;;;;;3.13;2.80;;;16.60;71.60;;;;;;5051567;28;20453;-41
2021/05/15 08:54:22;;;;;;;3.58;3.22;;;16.50;71.60;;;;;;5051602;28;20488;-41
2021/05/15 08:56:51;;;;;;;2.80;2.50;;;16.50;71.60;;;;;;5051577;28;20060;-41
2021/05/15 08:59:17;;;;;;;3.63;3.13;;;16.50;71.50;;;;;;5051779;28;20068;-41
2021/05/15 09:01:44;;;;;;;4.13;2.90;;;16.50;71.60;;;;;;5051333;28;20053;-41
2021/05/15 09:04:10;;;;;;;3.45;2.97;;;16.50;71.50;;;;;;5054982;28;20055;-41
2021/05/15 09:06:40;;;;;;;4.18;2.80;;;16.40;71.50;;;;;;5055332;28;20049;-45
2021/05/15 09:09:06;;;;;;;3.55;3.05;;;16.50;71.50;;;;;;5056068;28;20045;-44
2021/05/15 09:11:31;;;;;;;3.83;2.90;;;16.60;71.60;;;;;;5056079;28;20474;-41
2021/05/15 09:13:57;;;;;;;3.20;2.90;;;16.50;71.50;;;;;;5055603;28;20143;-43
2021/05/15 09:16:23;;;;;;;3.05;2.72;;;16.50;71.50;;;;;;5054953;28;20044;-39
2021/05/15 09:18:49;;;;;;;3.30;2.90;;;16.50;71.50;;;;;;5046283;28;20446;-45
2021/05/15 09:21:21;;;;;;;3.55;3.10;;;16.50;71.50;;;;;;5035521;28;20042;-45
2021/05/15 09:23:49;;;;;;;4.53;2.80;;;16.50;71.50;;;;;;5035019;28;20059;-42
2021/05/15 09:26:17;;;;;;;4.32;3.00;;;16.50;71.50;;;;;;5035394;28;20045;-41
2021/05/15 09:28:50;;;;;;;3.67;3.05;;;16.50;71.50;;;;;;5034954;28;20091;-46
2021/05/15 09:31:22;;;;;;;3.40;2.97;;;16.50;71.50;;;;;;5034873;28;20049;-38
2021/05/15 09:33:54;;;;;;;4.03;2.85;;;16.50;71.50;;;;;;5034579;28;20045;-42
2021/05/15 09:36:29;;;;;;;3.65;3.22;;;16.50;71.50;;;;;;5034485;28;20046;-44
2021/05/15 09:39:12;;;;;;;3.47;3.00;;;16.50;71.50;;;;;;5034701;28;20052;-40
2021/05/15 09:41:39;;;;;;;3.72;3.03;;;16.50;71.50;;;;;;5034667;28;20060;-41
2021/05/15 09:44:07;;;;;;;3.80;2.60;;;16.60;71.50;;;;;;5034245;28;20045;-44
2021/05/15 09:46:35;;;;;;;3.78;3.20;;;16.50;71.50;;;;;;5034649;28;20061;-44
2021/05/15 09:49:02;;;;;;;3.35;2.97;;;16.50;71.50;;;;;;5034424;28;20071;-48
2021/05/15 09:51:28;;;;;;;4.07;3.30;;;16.50;71.50;;;;;;5034374;28;20065;-44
2021/05/15 09:53:54;;;;;;;5.28;3.28;;;16.50;71.50;;;;;;5034622;28;20449;-48
2021/05/15 09:56:31;;;;;;;4.10;3.22;;;16.50;71.50;;;;;;5034433;28;20137;-42
2021/05/15 09:58:57;;;;;;;3.75;3.17;;;16.50;71.40;;;;;;5034251;28;20045;-42
2021/05/15 10:01:23;;;;;;;3.33;3.03;;;16.60;71.50;;;;;;5034568;28;20504;-40
2021/05/15 10:04:02;;;;;;;3.88;3.22;;;16.50;71.50;;;;;;5034228;28;20046;-42
2021/05/15 10:06:28;;;;;;;4.45;3.42;;;16.50;71.50;;;;;;5033845;28;20048;-40
2021/05/15 10:08:54;;;;;;;3.40;3.05;;;16.50;71.40;;;;;;5034207;28;20048;-47
2021/05/15 10:11:21;;;;;;;4.03;3.38;;;16.50;71.40;;;;;;5034043;28;20128;-44
2021/05/15 10:13:47;;;;;;;4.07;3.08;;;16.50;71.50;;;;;;5032953;28;20483;-42
2021/05/15 10:16:13;;;;;;;4.35;3.75;;;16.50;71.40;;;;;;5033862;28;20442;-41
2021/05/15 10:18:39;;;;;;;4.00;3.42;;;16.50;72.10;;;;;;5040906;28;20045;-41
2021/05/15 10:21:05;;;;;;;4.35;2.80;;;16.50;71.40;;;;;;5053893;28;20055;-40
2021/05/15 10:23:36;;;;;;;4.35;3.30;;;16.50;71.40;;;;;;5053934;28;20122;-43
2021/05/15 10:26:15;;;;;;;3.60;3.08;;;16.50;71.40;;;;;;5053692;28;20077;-41
2021/05/15 10:28:42;;;;;;;4.18;3.42;;;16.50;71.50;;;;;;5053915;28;20064;-44
2021/05/15 10:31:13;;;;;;;4.63;3.33;;;16.50;71.40;;;;;;5053881;28;20049;-41
2021/05/15 10:33:40;;;;;;;3.70;3.17;;;16.50;71.40;;;;;;5035753;28;20465;-45
2021/05/15 10:36:07;;;;;;;3.42;3.13;;;16.50;71.40;;;;;;5053356;28;20049;-45
2021/05/15 10:38:38;;;;;;;4.40;3.38;;;16.50;71.40;;;;;;5053243;28;20052;-43
2021/05/15 10:41:17;;;;;;;3.83;3.20;;;16.50;71.40;;;;;;5052082;28;20523;-39
2021/05/15 10:43:45;;;;;;;4.50;3.50;;;16.50;71.40;;;;;;5052931;28;20056;-41
2021/05/15 10:46:28;;;;;;;4.75;3.70;;;16.50;71.40;;;;;;5053167;28;20052;-46
2021/05/15 10:49:07;;;;;;;5.00;3.85;;;16.50;71.40;;;;;;5053152;28;20048;-42
2021/05/15 10:51:34;;;;;;;4.65;3.72;;;16.50;71.40;;;;;;5052057;28;20045;-40
2021/05/15 10:54:01;;;;;;;4.05;3.30;;;16.50;71.40;;;;;;5033218;28;20064;-45
2021/05/15 10:56:31;;;;;;;4.65;3.88;;;16.50;71.40;;;;;;5038066;28;20144;-41
2021/05/15 10:59:04;;;;;;;4.15;3.40;;;16.50;71.40;;;;;;5047215;28;20467;-42
2021/05/15 11:01:55;;;;;;;4.95;3.75;;;16.50;71.40;;;;;;5050850;28;20083;-40
2021/05/15 11:04:30;;;;;;;4.88;3.70;;;16.60;72.20;;;;;;5033388;28;20069;-46
2021/05/15 11:06:59;;;;;;;4.60;3.65;;;16.50;71.40;;;;;;5032904;28;20107;-42
2021/05/15 11:09:28;;;;;;;4.78;3.83;;;16.50;71.40;;;;;;5032931;28;20410;-42
2021/05/15 11:12:02;;;;;;;5.38;3.60;;;16.60;71.50;;;;;;5033015;28;20056;-44
2021/05/15 11:14:29;;;;;;;5.18;4.03;;;16.50;71.40;;;;;;5041776;28;20057;-46
2021/05/15 11:17:04;;;;;;;4.80;3.58;;;16.50;71.40;;;;;;5053246;28;20485;-46
2021/05/15 11:19:30;;;;;;;4.00;3.15;;;16.50;71.40;;;;;;5053554;28;20052;-41
2021/05/15 11:21:55;;;;;;;4.60;3.58;;;16.50;71.40;;;;;;5052313;28;20053;-44
2021/05/15 11:24:29;;;;;;;4.95;3.50;;;16.50;71.50;;;;;;5052772;28;20132;-39
2021/05/15 11:26:56;;;;;;;4.75;3.47;;;16.50;71.40;;;;;;5052288;28;20067;-40
2021/05/15 11:29:40;;;;;;;4.70;3.75;;;16.60;71.50;;;;;;5052787;28;20049;-45
2021/05/15 11:32:16;;;;;;;5.50;3.80;;;16.50;71.40;;;;;;5052559;28;20041;-45
2021/05/15 11:34:42;;;;;;;3.90;3.22;;;16.60;71.50;;;;;;5052635;28;20044;-47
2021/05/15 11:37:11;;;;;;;5.43;3.83;;;16.50;71.40;;;;;;5051855;28;20132;-42
2021/05/15 11:39:37;;;;;;;5.13;4.05;;;16.50;71.40;;;;;;5052327;28;20118;-46
2021/05/15 11:42:06;;;;;;;5.03;3.63;;;16.50;71.40;;;;;;5050350;28;20061;-46
2021/05/15 11:44:32;;;;;;;5.15;4.10;;;16.60;71.50;;;;;;5038267;28;20482;-46
2021/05/15 11:46:59;;;;;;;4.43;3.80;;;16.50;71.40;;;;;;5034085;28;20055;-43
2021/05/15 11:49:27;;;;;;;4.63;3.60;;;16.60;71.50;;;;;;5044079;28;20072;-42
2021/05/15 11:52:07;;;;;;;4.78;3.92;;;16.60;71.50;;;;;;5032134;28;20444;-44
2021/05/15 11:54:34;;;;;;;4.85;3.80;;;16.60;71.50;;;;;;5032115;28;20049;-46
2021/05/15 11:57:03;;;;;;;4.32;3.67;;;16.60;71.50;;;;;;5032095;28;20045;-40
2021/05/15 11:59:30;;;;;;;4.50;3.65;;;16.60;71.40;;;;;;5030175;28;20045;-44
2021/05/15 12:01:57;;;;;;;4.78;3.97;;;16.60;71.40;;;;;;5042816;28;20049;-43
2021/05/15 12:04:28;;;;;;;4.78;3.83;;;16.60;71.50;;;;;;5051871;28;20040;-43
2021/05/15 12:07:05;;;;;;;4.50;3.80;;;16.60;71.50;;;;;;5052179;28;20049;-46
2021/05/15 12:09:31;;;;;;;4.50;3.67;;;16.60;71.50;;;;;;5051845;28;20056;-40
2021/05/15 12:12:08;;;;;;;4.93;3.90;;;16.60;71.50;;;;;;5052002;28;20152;-46
2021/05/15 12:14:38;;;;;;;5.72;4.00;;;16.60;71.50;;;;;;5051928;28;20490;-43
2021/05/15 12:17:06;;;;;;;3.97;3.25;;;16.60;71.40;;;;;;5052077;28;20049;-44
2021/05/15 12:19:32;;;;;;;5.40;3.67;;;16.60;71.50;;;;;;5051966;28;20079;-43
2021/05/15 12:22:03;;;;;;;4.78;3.85;;;16.60;71.50;;;;;;5051745;28;20049;-40
2021/05/15 12:24:34;;;;;;;4.40;3.53;;;16.60;71.40;;;;;;5051660;28;20045;-40
2021/05/15 12:27:06;;;;;;;6.18;4.25;;;16.50;71.70;;;;;;5051760;28;20049;-43
2021/05/15 12:29:32;;;;;;;4.00;3.40;;;16.70;71.50;;;;;;5051811;28;20053;-41
2021/05/15 12:31:57;;;;;;;4.53;3.70;;;16.60;71.40;;;;;;5051373;28;20052;-43
2021/05/15 12:34:23;;;;;;;4.85;3.53;;;16.60;71.50;;;;;;5041523;28;20056;-43
2021/05/15 12:36:49;;;;;;;4.68;3.88;;;16.60;71.40;;;;;;5042568;28;20091;-42
2021/05/15 12:39:15;;;;;;;4.32;3.60;;;16.60;71.40;;;;;;5045548;28;20076;-49
2021/05/15 12:41:41;;;;;;;4.75;3.80;;;16.60;71.40;;;;;;5054898;28;20470;-46
2021/05/15 12:44:18;;;;;;;4.90;3.88;;;16.60;71.40;;;;;;5036336;28;20076;-47
2021/05/15 12:46:46;;;;;;;5.38;4.05;;;16.60;71.40;;;;;;5034951;28;20068;-44
2021/05/15 12:49:14;;;;;;;4.97;3.78;;;16.60;71.40;;;;;;5049550;28;20041;-46